Time;durP1;ratioP1;P1;durP2;ratioP2;P2;SDS_P1;SDS_P2;PMS_P1;PMS_P2;Temp;Humidity;BMP_temperature;BMP_pressure;BME280_temperature;BME280_humidity;BME280_pressure;Samples;Min_cycle;Max_cycle;Signal;HPM_P1;HPM_P2
2022/02/06 00:20:50;;;;;;;;;;;;;;;;;;;;;
2022/02/06 00:33:34;;;;;;;;;;;;;;;;;;;;;
2022/02/06 01:03:56;;;;;;;;;;;;;;;;;;;;;
2022/02/06 01:09:54;;;;;;;;;;;;;;;;;;;;;
2022/02/06 01:25:53;;;;;;;;;;;;;;;;;;;;;
2022/02/06 01:29:03;;;;;;;;;;;;;;;;;;;;;
2022/02/06 01:38:47;;;;;;;;;;;;;;;;;;;;;
2022/02/06 02:45:17;;;;;;;;;;;8.20;99.90;;;;;;6225893;23;20238;-91
2022/02/06 02:48:01;;;;;;;;;;;8.20;99.90;;;;;;6214969;23;19904;-94
2022/02/06 02:50:56;;;;;;;;;;;8.20;99.90;;;;;;6221908;23;20313;-93
2022/02/06 02:53:38;;;;;;;;;;;8.10;99.90;;;;;;6221234;23;19911;-91
2022/02/06 02:59:35;;;;;;;;;;;8.20;99.90;;;;;;6247991;23;19916;-91
2022/02/06 03:02:26;;;;;;;;;;;8.20;99.90;;;;;;6221233;23;19915;-91
2022/02/06 03:05:06;;;;;;;;;;;;;;;;;;;;;
2022/02/06 03:08:08;;;;;;;;;;;8.10;99.90;;;;;;6248483;22;19986;-92
2022/02/06 03:11:11;;;;;;;;;;;8.10;99.90;;;;;;6221356;23;19943;-91
2022/02/06 03:14:41;;;;;;;;;;;8.10;99.90;;;;;;6237643;23;19954;-93
2022/02/06 03:17:01;;;;;;;;;;;8.10;99.90;;;;;;6246098;22;19908;-92
2022/02/06 03:19:37;;;;;;;;;;;;;;;;;;;;;
2022/02/06 03:22:34;;;;;;;;;;;;;;;;;;;;;
2022/02/06 03:28:02;;;;;;;;;;;8.10;99.90;;;;;;6213759;23;19982;-90
2022/02/06 03:33:59;;;;;;;;;;;8.10;99.90;;;;;;6246637;23;19909;-91
2022/02/06 03:37:11;;;;;;;;;;;8.10;99.90;;;;;;6201515;23;20314;-91
2022/02/06 03:39:49;;;;;;;;;;;;;;;;;;;;;
2022/02/06 03:42:53;;;;;;;;;;;8.10;99.90;;;;;;6250103;22;19998;-92
2022/02/06 03:48:45;;;;;;;;;;;8.10;99.90;;;;;;6233981;23;19904;-90
2022/02/06 03:51:18;;;;;;;;;;;8.10;99.90;;;;;;6242701;22;19914;-90
2022/02/06 03:54:04;;;;;;;;;;;8.10;99.90;;;;;;6250186;22;19895;-91
2022/02/06 03:56:33;;;;;;;;;;;8.10;99.90;;;;;;6249576;22;20245;-92
2022/02/06 03:59:13;;;;;;;;;;;8.10;99.90;;;;;;6248889;22;19898;-92
2022/02/06 04:01:55;;;;;;;;;;;8.10;99.90;;;;;;6231817;23;19904;-91
2022/02/06 04:04:31;;;;;;;;;;;8.10;99.90;;;;;;6179448;23;19920;-92
2022/02/06 04:07:16;;;;;;;;;;;;;;;;;;;;;
2022/02/06 04:10:06;;;;;;;;;;;8.10;99.90;;;;;;6222037;23;19927;-93
2022/02/06 04:12:37;;;;;;;;;;;8.10;99.90;;;;;;6175828;23;19994;-92
2022/02/06 04:15:36;;;;;;;;;;;8.10;99.90;;;;;;6200248;23;20321;-91
2022/02/06 04:18:28;;;;;;;;;;;8.10;99.90;;;;;;6206788;23;20318;-91
2022/02/06 04:21:04;;;;;;;;;;;8.10;99.90;;;;;;6199036;23;20370;-91
2022/02/06 04:23:37;;;;;;;;;;;8.10;99.90;;;;;;6206726;23;19904;-91
2022/02/06 04:29:09;;;;;;;;;;;8.10;99.90;;;;;;6233713;23;19904;-91
2022/02/06 04:31:41;;;;;;;;;;;8.10;99.90;;;;;;6194500;23;19904;-90
2022/02/06 04:34:20;;;;;;;;;;;;;;;;;;;;;
2022/02/06 04:40:24;;;;;;;;;;;;;;;;;;;;;
2022/02/06 05:28:34;;;;;;;;;;;8.20;99.90;;;;;;6214503;22;19907;-92
2022/02/06 05:34:11;;;;;;;;;;;8.30;99.90;;;;;;6219741;23;19932;-92
2022/02/06 05:36:39;;;;;;;;;;;8.30;99.90;;;;;;6221538;23;19907;-93
2022/02/06 05:39:07;;;;;;;;;;;8.30;99.90;;;;;;6221963;23;20160;-91
2022/02/06 05:41:35;;;;;;;;;;;8.30;99.90;;;;;;6222041;23;19911;-92
2022/02/06 05:44:04;;;;;;;;;;;8.30;99.90;;;;;;6197265;23;19912;-94
2022/02/06 05:46:37;;;;;;;;;;;8.30;99.90;;;;;;6221786;23;19935;-93
2022/02/06 05:49:08;;;;;;;;;;;8.40;99.90;;;;;;6222519;23;20302;-91
2022/02/06 05:51:43;;;;;;;;;;;8.30;99.90;;;;;;6222379;23;20306;-92
2022/02/06 05:54:10;;;;;;;;;;;8.40;99.90;;;;;;6222438;23;19907;-93
2022/02/06 05:56:36;;;;;;;;;;;8.40;99.90;;;;;;6222128;23;19922;-92
2022/02/06 05:59:05;;;;;;;;;;;8.40;99.90;;;;;;6196862;23;19912;-92
2022/02/06 06:01:39;;;;;;;;;;;8.40;99.90;;;;;;6222113;23;19904;-91
2022/02/06 06:04:05;;;;;;;;;;;8.50;99.90;;;;;;6221356;23;19916;-91
2022/02/06 06:06:42;;;;;;;;;;;;;;;;;;;;;
2022/02/06 06:09:21;;;;;;;;;;;8.50;99.90;;;;;;6248365;22;19974;-93
2022/02/06 06:11:49;;;;;;;;;;;8.50;99.90;;;;;;6222804;23;19949;-91
2022/02/06 06:14:17;;;;;;;;;;;8.50;99.90;;;;;;6196503;23;19939;-91
2022/02/06 06:17:08;;;;;;;;;;;8.50;99.90;;;;;;6197564;23;19919;-92
2022/02/06 06:19:47;;;;;;;;;;;;;;;;;;;;;
2022/02/06 06:22:19;;;;;;;;;;;8.60;99.90;;;;;;6248696;23;20290;-90
2022/02/06 06:24:56;;;;;;;;;;;8.60;99.90;;;;;;6221666;23;19908;-92
2022/02/06 06:27:33;;;;;;;;;;;8.50;99.90;;;;;;6221510;23;19942;-92
2022/02/06 06:30:01;;;;;;;;;;;8.60;99.90;;;;;;6221773;23;19903;-93
2022/02/06 06:32:27;;;;;;;;;;;8.50;99.90;;;;;;6222135;23;19911;-93
2022/02/06 06:34:56;;;;;;;;;;;8.60;99.90;;;;;;6221952;23;19904;-92
2022/02/06 06:37:22;;;;;;;;;;;8.60;99.90;;;;;;6197211;23;20277;-92
2022/02/06 06:39:53;;;;;;;;;;;8.50;99.90;;;;;;6197120;23;19912;-92
2022/02/06 06:42:51;;;;;;;;;;;8.60;99.90;;;;;;6249487;22;19904;-92
2022/02/06 06:45:22;;;;;;;;;;;8.60;99.90;;;;;;6247017;22;19887;-93
2022/02/06 06:48:03;;;;;;;;;;;8.60;99.90;;;;;;6248676;22;19913;-91
2022/02/06 06:50:37;;;;;;;;;;;8.60;99.90;;;;;;6225536;22;19891;-91
2022/02/06 06:53:05;;;;;;;;;;;8.60;99.90;;;;;;6250415;22;19899;-92
2022/02/06 06:55:34;;;;;;;;;;;8.60;99.90;;;;;;6250447;22;19931;-92
2022/02/06 06:58:23;;;;;;;;;;;8.60;99.90;;;;;;6250605;22;19907;-93
2022/02/06 07:00:57;;;;;;;;;;;8.60;99.90;;;;;;6250565;22;19911;-92
2022/02/06 07:06:24;;;;;;;;;;;8.60;99.90;;;;;;6265861;22;19915;-90
2022/02/06 07:08:59;;;;;;;;;;;8.60;99.90;;;;;;6223274;23;19903;-91
2022/02/06 07:11:47;;;;;;;;;;;8.60;99.90;;;;;;6250087;23;19910;-90
2022/02/06 07:14:15;;;;;;;;;;;8.60;99.90;;;;;;6248930;23;20273;-92
2022/02/06 07:16:44;;;;;;;;;;;8.60;99.90;;;;;;6198502;23;19926;-91
2022/02/06 07:19:09;;;;;;;;;;;8.60;99.90;;;;;;6249328;23;19942;-91
2022/02/06 07:21:39;;;;;;;;;;;8.60;99.90;;;;;;6223883;23;19907;-93
2022/02/06 07:24:04;;;;;;;;;;;8.60;99.90;;;;;;6249907;23;19931;-92
2022/02/06 07:26:32;;;;;;;;;;;8.60;99.90;;;;;;6223433;23;20377;-92
2022/02/06 07:29:01;;;;;;;;;;;8.60;99.90;;;;;;6223725;23;19903;-92
2022/02/06 07:31:27;;;;;;;;;;;8.60;99.90;;;;;;6225638;23;19904;-91
2022/02/06 07:34:11;;;;;;;;;;;;;;;;;;;;;
2022/02/06 07:36:37;;;;;;;;;;;8.60;99.90;;;;;;6250451;23;19986;-91
2022/02/06 07:42:09;;;;;;;;;;;8.60;99.90;;;;;;6182166;23;19942;-92
2022/02/06 07:44:47;;;;;;;;;;;8.60;99.90;;;;;;6223574;23;19927;-93
2022/02/06 07:47:25;;;;;;;;;;;8.60;99.90;;;;;;6224242;23;19904;-92
2022/02/06 07:50:32;;;;;;;;;;;8.70;99.90;;;;;;6199381;23;19907;-94
2022/02/06 07:53:12;;;;;;;;;;;8.70;99.90;;;;;;6249213;22;19978;-92
2022/02/06 07:56:19;;;;;;;;;;;8.70;99.90;;;;;;6223633;23;19904;-93
2022/02/06 08:02:11;;;;;;;;;;;;;;;;;;;;;
2022/02/06 08:04:59;;;;;;;;;;;;;;;;;;;;;
2022/02/06 08:07:50;;;;;;;;;;;8.70;99.90;;;;;;6225899;23;20383;-92
2022/02/06 08:11:11;;;;;;;;;;;;;;;;;;;;;
2022/02/06 08:13:51;;;;;;;;;;;8.70;99.90;;;;;;6234326;22;20226;-91
2022/02/06 08:22:48;;;;;;;;;;;;;;;;;;;;;
2022/02/06 08:31:37;;;;;;;;;;;8.70;99.90;;;;;;6116208;23;19894;-94
2022/02/06 08:50:47;;;;;;;;;;;8.80;99.90;;;;;;5808101;24;19961;-92
2022/02/06 08:57:01;;;;;;;;;;;;;;;;;;;;;
2022/02/06 09:03:20;;;;;;;;;;;;;;;;;;;;;
2022/02/06 09:06:11;;;;;;;;;;;;;;;;;;;;;
2022/02/06 09:18:37;;;;;;;;;;;;;;;;;;;;;
2022/02/06 09:21:28;;;;;;;;;;;;;;;;;;;;;
2022/02/06 09:27:40;;;;;;;;;;;;;;;;;;;;;
2022/02/06 09:30:30;;;;;;;;;;;8.80;99.90;;;;;;5927218;24;19934;-93
2022/02/06 09:36:05;;;;;;;;;;;8.80;99.90;;;;;;6083612;23;20228;-92
2022/02/06 09:38:51;;;;;;;;;;;8.80;99.90;;;;;;6246421;23;19915;-91
2022/02/06 09:45:05;;;;;;;;;;;;;;;;;;;;;
2022/02/06 09:57:24;;;;;;;;;;;8.90;99.90;;;;;;6123733;23;20275;-92
2022/02/06 10:00:31;;;;;;;;;;;;;;;;;;;;;
2022/02/06 10:15:42;;;;;;;;;;;;;;;;;;;;;
2022/02/06 10:18:23;;;;;;;;;;;;;;;;;;;;;
2022/02/06 10:21:34;;;;;;;;;;;;;;;;;;;;;
2022/02/06 10:24:18;;;;;;;;;;;8.90;99.90;;;;;;6152984;23;19988;-91
2022/02/06 10:32:35;;;;;;;;;;;8.90;99.90;;;;;;6210608;23;19903;-92
2022/02/06 10:38:58;;;;;;;;;;;;;;;;;;;;;
2022/02/06 10:45:02;;;;;;;;;;;8.90;99.90;;;;;;6083621;23;19913;-94
2022/02/06 11:01:06;;;;;;;;;;;;;;;;;;;;;
2022/02/06 11:29:17;;;;;;;;;;;9.00;99.90;;;;;;5946825;24;19896;-94
2022/02/06 11:45:52;;;;;;;;;;;9.00;99.90;;;;;;6219592;23;20242;-91
2022/02/06 11:48:23;;;;;;;;;;;9.00;99.90;;;;;;6192681;23;19952;-91
2022/02/06 11:50:52;;;;;;;;;;;9.00;99.90;;;;;;6193172;23;20302;-91
2022/02/06 11:53:57;;;;;;;;;;;9.00;99.90;;;;;;6219324;23;19935;-91
2022/02/06 11:56:25;;;;;;;;;;;9.10;99.90;;;;;;6158483;23;19914;-91
2022/02/06 11:58:51;;;;;;;;;;;9.00;99.90;;;;;;6188416;23;20235;-91
2022/02/06 12:01:17;;;;;;;;;;;8.80;99.90;;;;;;6218387;23;19904;-89
2022/02/06 12:03:54;;;;;;;;;;;8.70;99.90;;;;;;6191861;23;19904;-90
2022/02/06 12:06:20;;;;;;;;;;;8.60;99.90;;;;;;6192389;23;19941;-90
2022/02/06 12:09:01;;;;;;;;;;;8.60;99.90;;;;;;6218689;23;19904;-89
2022/02/06 12:11:29;;;;;;;;;;;8.50;99.90;;;;;;6192172;23;20215;-91
2022/02/06 12:14:23;;;;;;;;;;;8.30;99.90;;;;;;6192386;23;20325;-92
2022/02/06 12:17:15;;;;;;;;;;;8.30;99.90;;;;;;6192094;23;19912;-90
2022/02/06 12:19:41;;;;;;;;;;;8.10;99.90;;;;;;6192908;23;19907;-88
2022/02/06 12:22:41;;;;;;;;;;;8.00;99.90;;;;;;6217201;23;19904;-90
2022/02/06 12:25:25;;;;;;;;;;;7.90;99.90;;;;;;6160258;23;19904;-89
2022/02/06 12:28:42;;;;;;;;;;;;;;;;;;;;;
2022/02/06 12:31:47;;;;;;;;;;;;;;;;;;;;;
2022/02/06 12:37:28;;;;;;;;;;;7.80;99.90;;;;;;6159914;23;19916;-91
2022/02/06 12:40:10;;;;;;;;;;;7.80;99.90;;;;;;6194588;23;19916;-90
2022/02/06 12:42:56;;;;;;;;;;;;;;;;;;;;;
2022/02/06 12:45:29;;;;;;;;;;;7.90;99.90;;;;;;6213208;23;19979;-91
2022/02/06 12:48:09;;;;;;;;;;;7.90;99.90;;;;;;6191212;23;19904;-89
2022/02/06 12:50:41;;;;;;;;;;;7.90;99.90;;;;;;6191793;23;19904;-91
2022/02/06 12:56:14;;;;;;;;;;;;;;;;;;;;;
2022/02/06 12:59:00;;;;;;;;;;;;;;;;;;;;;
2022/02/06 13:01:39;;;;;;;;;;;7.90;99.90;;;;;;6217350;23;19986;-90
2022/02/06 13:04:27;;;;;;;;;;;8.00;99.90;;;;;;6198421;23;19954;-90
2022/02/06 13:07:01;;;;;;;;;;;8.00;99.90;;;;;;6218761;23;19936;-90
2022/02/06 13:09:30;;;;;;;;;;;8.00;99.90;;;;;;6218709;23;19919;-91
2022/02/06 13:12:24;;;;;;;;;;;;;;;;;;;;;
2022/02/06 13:23:48;;;;;;;;;;;8.00;99.90;;;;;;6216235;23;20277;-90
2022/02/06 13:29:12;;;;;;;;;;;8.20;99.90;;;;;;6221735;23;20318;-89
2022/02/06 13:31:55;;;;;;;;;;;8.20;99.90;;;;;;6196880;23;19990;-90
2022/02/06 13:40:18;;;;;;;;;;;8.20;99.90;;;;;;6184081;23;19939;-89
2022/02/06 13:43:18;;;;;;;;;;;8.30;99.90;;;;;;6190831;23;20295;-92
2022/02/06 13:46:01;;;;;;;;;;;;;;;;;;;;;
2022/02/06 13:48:46;;;;;;;;;;;8.30;99.90;;;;;;6218508;23;19983;-90
2022/02/06 13:51:33;;;;;;;;;;;8.30;99.90;;;;;;6193734;23;19986;-90
2022/02/06 13:57:05;;;;;;;;;;;8.30;99.90;;;;;;6191291;23;20346;-92
2022/02/06 13:59:38;;;;;;;;;;;8.30;99.90;;;;;;6190570;23;19958;-90
2022/02/06 14:02:14;;;;;;;;;;;8.30;99.90;;;;;;6191665;23;19955;-91
2022/02/06 14:04:48;;;;;;;;;;;8.40;99.90;;;;;;6191609;23;19904;-90
2022/02/06 14:07:20;;;;;;;;;;;8.40;99.90;;;;;;6216916;23;19908;-88
2022/02/06 14:10:12;;;;;;;;;;;8.30;99.90;;;;;;6191686;23;20373;-91
2022/02/06 14:13:02;;;;;;;;;;;8.30;99.90;;;;;;6191570;23;19903;-90
2022/02/06 14:15:41;;;;;;;;;;;8.40;99.90;;;;;;6191632;23;19908;-88
2022/02/06 14:18:39;;;;;;;;;;;8.30;99.90;;;;;;6191868;23;20004;-91
2022/02/06 14:21:22;;;;;;;;;;;8.30;99.90;;;;;;6183259;23;19904;-90
2022/02/06 14:24:11;;;;;;;;;;;8.40;99.90;;;;;;6192209;23;20034;-89
2022/02/06 14:26:57;;;;;;;;;;;8.30;99.90;;;;;;6192180;23;19904;-91
2022/02/06 14:29:29;;;;;;;;;;;8.40;99.90;;;;;;6192620;23;19931;-91
2022/02/06 14:32:07;;;;;;;;;;;8.40;99.90;;;;;;6192146;23;19982;-90
2022/02/06 14:34:38;;;;;;;;;;;8.40;99.90;;;;;;6217018;23;19892;-92
2022/02/06 14:37:22;;;;;;;;;;;8.50;99.90;;;;;;6243592;23;19923;-90
2022/02/06 14:40:02;;;;;;;;;;;8.50;99.90;;;;;;6214637;23;19904;-91
2022/02/06 14:42:41;;;;;;;;;;;;;;;;;;;;;
2022/02/06 14:45:14;;;;;;;;;;;8.50;99.90;;;;;;6244130;23;19892;-89
2022/02/06 14:47:40;;;;;;;;;;;8.50;99.90;;;;;;6198189;23;20341;-88
2022/02/06 14:50:38;;;;;;;;;;;8.50;99.90;;;;;;6216707;23;19904;-91
2022/02/06 14:53:12;;;;;;;;;;;8.50;99.90;;;;;;6131082;23;19908;-90
2022/02/06 14:55:41;;;;;;;;;;;8.50;99.90;;;;;;6131839;23;19912;-92
2022/02/06 14:58:26;;;;;;;;;;;8.50;99.90;;;;;;6185153;23;19915;-91
2022/02/06 15:01:16;;;;;;;;;;;8.50;99.90;;;;;;6191836;23;20259;-91
2022/02/06 15:03:50;;;;;;;;;;;8.50;99.90;;;;;;6216683;23;20330;-91
2022/02/06 15:06:19;;;;;;;;;;;8.60;99.90;;;;;;6192178;23;19952;-90
2022/02/06 15:08:55;;;;;;;;;;;;;;;;;;;;;
2022/02/06 15:11:21;;;;;;;;;;;8.60;99.90;;;;;;6219480;23;19979;-90
2022/02/06 15:13:49;;;;;;;;;;;8.60;99.90;;;;;;6192557;23;19904;-91
2022/02/06 15:16:39;;;;;;;;;;;8.60;99.90;;;;;;6193042;23;19908;-89
2022/02/06 15:19:31;;;;;;;;;;;8.60;99.90;;;;;;6217983;23;19994;-90
2022/02/06 15:21:57;;;;;;;;;;;8.60;99.90;;;;;;6192886;23;19908;-89
2022/02/06 15:24:29;;;;;;;;;;;8.60;99.90;;;;;;6193366;23;19904;-91
2022/02/06 15:27:00;;;;;;;;;;;8.60;99.90;;;;;;6192953;23;19904;-90
2022/02/06 15:29:26;;;;;;;;;;;8.60;99.90;;;;;;6194583;23;19908;-89
2022/02/06 15:31:56;;;;;;;;;;;8.60;99.90;;;;;;6219162;23;19946;-89
2022/02/06 15:34:26;;;;;;;;;;;8.60;99.90;;;;;;6193907;23;19904;-91
2022/02/06 15:36:59;;;;;;;;;;;8.60;99.90;;;;;;6194262;23;20384;-90
2022/02/06 15:39:34;;;;;;;;;;;8.60;99.90;;;;;;6217815;23;19920;-91
2022/02/06 15:42:22;;;;;;;;;;;8.60;99.90;;;;;;6192796;23;19908;-91
2022/02/06 15:44:52;;;;;;;;;;;8.60;99.90;;;;;;6217723;23;19986;-90
2022/02/06 15:47:28;;;;;;;;;;;8.60;99.90;;;;;;6192627;23;19951;-91
2022/02/06 15:49:56;;;;;;;;;;;8.60;99.90;;;;;;6192196;23;19911;-91
2022/02/06 15:52:24;;;;;;;;;;;8.60;99.90;;;;;;6181043;23;19904;-90
2022/02/06 15:54:49;;;;;;;;;;;8.50;99.90;;;;;;6192399;23;19904;-89
2022/02/06 15:57:17;;;;;;;;;;;8.50;99.90;;;;;;6192560;23;19923;-89
2022/02/06 15:59:47;;;;;;;;;;;8.50;99.90;;;;;;6192670;23;19904;-89
2022/02/06 16:02:15;;;;;;;;;;;8.50;99.90;;;;;;6193199;23;19955;-93
2022/02/06 16:04:44;;;;;;;;;;;8.50;99.90;;;;;;6192534;23;19915;-91
2022/02/06 16:07:32;;;;;;;;;;;8.50;99.90;;;;;;6227960;23;19904;-91
2022/02/06 16:09:57;;;;;;;;;;;8.50;99.90;;;;;;6209047;23;19896;-91
2022/02/06 16:12:35;;;;;;;;;;;8.50;99.90;;;;;;6219060;23;19944;-91
2022/02/06 16:15:24;;;;;;;;;;;8.50;99.90;;;;;;6219327;23;19923;-92
2022/02/06 16:20:45;;;;;;;;;;;8.40;99.90;;;;;;6223400;23;19908;-92
2022/02/06 16:23:31;;;;;;;;;;;8.40;99.90;;;;;;6198310;23;19915;-90
2022/02/06 16:26:15;;;;;;;;;;;8.40;99.90;;;;;;6192880;23;19908;-89
2022/02/06 16:28:45;;;;;;;;;;;8.50;99.90;;;;;;6192912;23;19915;-91
2022/02/06 16:31:31;;;;;;;;;;;8.40;99.90;;;;;;6192703;23;19931;-91
2022/02/06 16:33:59;;;;;;;;;;;8.50;99.90;;;;;;6191983;23;19904;-91
2022/02/06 16:36:38;;;;;;;;;;;;;;;;;;;;;
2022/02/06 16:39:04;;;;;;;;;;;8.40;99.90;;;;;;6218865;23;19975;-90
2022/02/06 16:41:39;;;;;;;;;;;8.40;99.90;;;;;;6191725;23;20361;-90
2022/02/06 16:44:10;;;;;;;;;;;8.50;99.90;;;;;;6191798;23;19947;-90
2022/02/06 16:47:00;;;;;;;;;;;8.50;99.90;;;;;;6192958;23;19914;-91
2022/02/06 16:49:44;;;;;;;;;;;8.50;99.90;;;;;;6217347;23;19915;-93
2022/02/06 16:52:15;;;;;;;;;;;8.40;99.90;;;;;;6218752;23;19904;-90
2022/02/06 16:54:40;;;;;;;;;;;8.40;99.90;;;;;;6192429;23;19998;-91
2022/02/06 16:57:12;;;;;;;;;;;8.30;99.90;;;;;;6192358;23;19936;-89
2022/02/06 16:59:39;;;;;;;;;;;8.30;99.90;;;;;;6192294;23;19948;-91
2022/02/06 17:02:12;;;;;;;;;;;8.30;99.90;;;;;;6191987;23;19904;-91
2022/02/06 17:04:50;;;;;;;;;;;;;;;;;;;;;
2022/02/06 17:07:16;;;;;;;;;;;8.10;99.90;;;;;;6218997;23;20283;-91
2022/02/06 17:09:53;;;;;;;;;;;8.10;99.90;;;;;;6192522;23;19904;-91
2022/02/06 17:12:19;;;;;;;;;;;8.00;99.90;;;;;;6192959;23;20307;-91
2022/02/06 17:14:47;;;;;;;;;;;8.00;99.90;;;;;;6192415;23;19904;-93
2022/02/06 17:17:33;;;;;;;;;;;7.90;99.90;;;;;;6192144;23;19912;-92
2022/02/06 17:20:06;;;;;;;;;;;7.90;99.90;;;;;;6190892;23;19938;-91
2022/02/06 17:22:36;;;;;;;;;;;7.80;99.90;;;;;;6192222;23;19908;-91
2022/02/06 17:25:06;;;;;;;;;;;7.70;99.90;;;;;;6192058;23;19904;-91
2022/02/06 17:27:35;;;;;;;;;;;7.60;99.90;;;;;;6192483;23;19983;-90
2022/02/06 17:30:05;;;;;;;;;;;7.40;99.90;;;;;;6192303;23;19911;-87
2022/02/06 17:32:35;;;;;;;;;;;7.40;99.90;;;;;;6192334;23;22677;-89
2022/02/06 17:35:01;;;;;;;;;;;7.30;99.90;;;;;;6192227;23;19912;-92
2022/02/06 17:37:27;;;;;;;;;;;7.20;99.90;;;;;;6192485;23;19908;-89
2022/02/06 17:40:00;;;;;;;;;;;7.20;99.90;;;;;;6194995;23;19911;-90
2022/02/06 17:42:35;;;;;;;;;;;7.10;99.90;;;;;;6242651;23;19904;-90
2022/02/06 17:45:22;;;;;;;;;;;7.10;99.90;;;;;;6218870;23;19920;-92
2022/02/06 17:47:58;;;;;;;;;;;7.00;99.90;;;;;;6241693;23;19899;-92
2022/02/06 17:50:31;;;;;;;;;;;7.00;99.90;;;;;;6212015;23;20273;-92
2022/02/06 17:56:06;;;;;;;;;;;6.90;99.90;;;;;;6226146;23;20246;-93
2022/02/06 17:58:34;;;;;;;;;;;6.80;99.90;;;;;;6225066;23;19976;-91
2022/02/06 18:01:02;;;;;;;;;;;6.80;99.90;;;;;;6198692;23;19965;-92
2022/02/06 18:03:38;;;;;;;;;;;6.80;99.90;;;;;;6198048;23;19911;-91
2022/02/06 18:06:04;;;;;;;;;;;6.80;99.90;;;;;;6198778;23;19904;-92
2022/02/06 18:08:34;;;;;;;;;;;6.80;99.90;;;;;;6197950;23;19939;-91
2022/02/06 18:11:08;;;;;;;;;;;6.70;99.90;;;;;;6198062;23;19927;-91
2022/02/06 18:13:43;;;;;;;;;;;6.70;99.90;;;;;;6197893;23;19914;-90
2022/02/06 18:16:18;;;;;;;;;;;6.70;99.90;;;;;;6197724;23;20310;-90
2022/02/06 18:18:44;;;;;;;;;;;6.70;99.90;;;;;;6197016;23;19915;-91
2022/02/06 18:21:20;;;;;;;;;;;6.70;99.90;;;;;;6196958;23;19923;-90
2022/02/06 18:23:46;;;;;;;;;;;6.60;99.90;;;;;;6197317;23;19907;-91
2022/02/06 18:26:14;;;;;;;;;;;6.70;99.90;;;;;;6196318;23;19951;-90
2022/02/06 18:28:45;;;;;;;;;;;6.60;99.90;;;;;;6197861;23;19939;-91
2022/02/06 18:31:10;;;;;;;;;;;6.60;99.90;;;;;;6199395;23;19915;-89
2022/02/06 18:33:36;;;;;;;;;;;6.50;99.90;;;;;;6204918;23;19947;-90
2022/02/06 18:36:05;;;;;;;;;;;6.50;99.90;;;;;;6203446;23;19908;-89
2022/02/06 18:38:34;;;;;;;;;;;6.50;99.90;;;;;;6201710;23;20345;-89
2022/02/06 18:41:23;;;;;;;;;;;;;;;;;;;;;
2022/02/06 18:43:51;;;;;;;;;;;6.50;99.90;;;;;;6223767;23;20314;-90
2022/02/06 18:46:19;;;;;;;;;;;6.40;99.90;;;;;;6224324;23;19907;-90
2022/02/06 18:48:45;;;;;;;;;;;6.40;99.90;;;;;;6200944;23;19904;-92
2022/02/06 18:51:14;;;;;;;;;;;6.50;99.90;;;;;;6228059;23;19908;-91
2022/02/06 18:53:43;;;;;;;;;;;6.50;99.90;;;;;;6199793;23;19903;-90
2022/02/06 18:56:13;;;;;;;;;;;6.50;99.90;;;;;;6199846;23;19927;-89
2022/02/06 18:58:45;;;;;;;;;;;6.50;99.90;;;;;;6200280;23;19995;-92
2022/02/06 19:01:13;;;;;;;;;;;6.50;99.90;;;;;;6225515;23;20201;-90
2022/02/06 19:03:43;;;;;;;;;;;6.50;99.90;;;;;;6199837;23;20278;-91
2022/02/06 19:06:11;;;;;;;;;;;6.50;99.90;;;;;;6199892;23;19980;-91
2022/02/06 19:08:45;;;;;;;;;;;6.50;99.90;;;;;;6227053;23;19926;-91
2022/02/06 19:11:19;;;;;;;;;;;6.40;99.90;;;;;;6242972;23;19936;-92
2022/02/06 19:13:45;;;;;;;;;;;6.40;99.90;;;;;;6220138;23;19892;-91
2022/02/06 19:16:11;;;;;;;;;;;6.40;99.90;;;;;;6219861;23;19904;-93
2022/02/06 19:18:39;;;;;;;;;;;6.40;99.90;;;;;;6218793;23;19916;-92
2022/02/06 19:21:05;;;;;;;;;;;6.30;99.90;;;;;;6200344;23;19939;-93
2022/02/06 19:23:34;;;;;;;;;;;6.30;99.90;;;;;;6200631;23;19986;-89
2022/02/06 19:26:08;;;;;;;;;;;6.30;99.90;;;;;;6200558;23;20306;-92
2022/02/06 19:28:44;;;;;;;;;;;6.20;99.90;;;;;;6199946;23;19904;-91
2022/02/06 19:31:13;;;;;;;;;;;6.20;99.90;;;;;;6225719;23;19911;-90
2022/02/06 19:33:46;;;;;;;;;;;6.20;99.90;;;;;;6199783;23;19904;-92
2022/02/06 19:36:16;;;;;;;;;;;6.20;99.90;;;;;;6199358;23;19927;-91
2022/02/06 19:38:44;;;;;;;;;;;6.20;99.90;;;;;;6199373;23;19908;-90
2022/02/06 19:41:10;;;;;;;;;;;6.20;99.90;;;;;;6198550;23;19915;-90
2022/02/06 19:43:43;;;;;;;;;;;6.20;99.90;;;;;;6198990;23;19916;-90
2022/02/06 19:46:13;;;;;;;;;;;6.20;99.90;;;;;;6225860;23;20219;-91
2022/02/06 19:48:49;;;;;;;;;;;6.10;99.90;;;;;;6200990;23;19903;-89
2022/02/06 19:51:17;;;;;;;;;;;6.10;99.90;;;;;;6194440;23;19915;-90
2022/02/06 19:54:04;;;;;;;;;;;6.20;99.90;;;;;;6193209;23;19904;-91
2022/02/06 19:56:30;;;;;;;;;;;6.20;99.90;;;;;;6192793;23;19903;-89
2022/02/06 19:58:56;;;;;;;;;;;6.30;99.90;;;;;;6193130;23;19943;-89
2022/02/06 20:01:21;;;;;;;;;;;6.30;99.90;;;;;;6193256;23;19904;-90
2022/02/06 20:03:47;;;;;;;;;;;6.30;99.90;;;;;;6219632;23;19926;-89
2022/02/06 20:06:15;;;;;;;;;;;6.30;99.90;;;;;;6193524;23;19904;-89
2022/02/06 20:08:47;;;;;;;;;;;6.30;99.90;;;;;;6193799;23;19931;-89
2022/02/06 20:11:15;;;;;;;;;;;6.30;99.90;;;;;;6193336;23;20331;-91
2022/02/06 20:13:41;;;;;;;;;;;6.30;99.90;;;;;;6218494;23;19912;-90
2022/02/06 20:16:18;;;;;;;;;;;;;;;;;;;;;
2022/02/06 20:18:48;;;;;;;;;;;6.40;99.90;;;;;;6219160;23;20378;-91
2022/02/06 20:21:14;;;;;;;;;;;6.40;99.90;;;;;;6217459;23;19911;-90
2022/02/06 20:23:40;;;;;;;;;;;6.40;99.90;;;;;;6193269;23;20032;-89
2022/02/06 20:26:15;;;;;;;;;;;6.40;99.90;;;;;;6193481;23;19903;-89
2022/02/06 20:28:43;;;;;;;;;;;6.40;99.90;;;;;;6219855;23;19998;-90
2022/02/06 20:31:12;;;;;;;;;;;6.50;99.90;;;;;;6193037;23;20230;-88
2022/02/06 20:33:37;;;;;;;;;;;6.50;99.90;;;;;;6193534;23;19931;-90
2022/02/06 20:36:03;;;;;;;;;;;6.40;99.90;;;;;;6206425;23;19924;-90
2022/02/06 20:38:36;;;;;;;;;;;6.40;99.90;;;;;;6230407;23;19920;-91
2022/02/06 20:41:03;;;;;;;;;;;6.40;99.90;;;;;;6219045;23;19899;-88
2022/02/06 20:43:29;;;;;;;;;;;6.40;99.90;;;;;;6218718;23;19904;-91
2022/02/06 20:46:02;;;;;;;;;;;6.40;99.90;;;;;;6217749;23;19908;-90
2022/02/06 20:48:28;;;;;;;;;;;6.40;99.90;;;;;;6199617;23;19908;-92
2022/02/06 20:50:56;;;;;;;;;;;6.40;99.90;;;;;;6193448;23;19923;-88
2022/02/06 20:53:22;;;;;;;;;;;6.50;99.90;;;;;;6193116;23;19911;-92
2022/02/06 20:55:56;;;;;;;;;;;6.50;99.90;;;;;;6193391;23;19927;-89
2022/02/06 20:58:27;;;;;;;;;;;6.50;99.90;;;;;;6219407;23;19915;-91
2022/02/06 21:01:13;;;;;;;;;;;;;;;;;;;;;
2022/02/06 21:03:46;;;;;;;;;;;6.50;99.90;;;;;;6218919;23;20004;-91
2022/02/06 21:06:15;;;;;;;;;;;6.40;99.90;;;;;;6192798;23;19914;-90
2022/02/06 21:08:48;;;;;;;;;;;6.40;99.90;;;;;;6192183;23;19908;-89
2022/02/06 21:14:22;;;;;;;;;;;6.40;99.90;;;;;;6205480;23;20336;-90
2022/02/06 21:16:56;;;;;;;;;;;6.30;99.90;;;;;;6193473;23;19929;-90
2022/02/06 21:19:24;;;;;;;;;;;6.30;99.90;;;;;;6192895;23;19912;-88
2022/02/06 21:21:52;;;;;;;;;;;6.30;99.90;;;;;;6192789;23;19912;-90
2022/02/06 21:24:23;;;;;;;;;;;6.30;99.90;;;;;;6192600;23;19911;-91
2022/02/06 21:26:49;;;;;;;;;;;6.30;99.90;;;;;;6192646;23;19904;-91
2022/02/06 21:29:25;;;;;;;;;;;6.40;99.90;;;;;;6219203;23;19910;-90
2022/02/06 21:31:51;;;;;;;;;;;6.30;99.90;;;;;;6192536;23;19908;-90
2022/02/06 21:34:23;;;;;;;;;;;6.30;99.90;;;;;;6191738;23;19954;-89
2022/02/06 21:36:54;;;;;;;;;;;6.30;99.90;;;;;;6192623;23;19908;-89
2022/02/06 21:39:27;;;;;;;;;;;6.30;99.90;;;;;;6193067;23;19915;-90
2022/02/06 21:41:54;;;;;;;;;;;6.30;99.90;;;;;;6192088;23;19952;-92
2022/02/06 21:44:27;;;;;;;;;;;6.30;99.90;;;;;;6192727;23;19904;-91
2022/02/06 21:46:55;;;;;;;;;;;6.30;99.90;;;;;;6192323;23;19904;-90
2022/02/06 21:49:24;;;;;;;;;;;6.20;99.90;;;;;;6191536;23;19908;-91
2022/02/06 21:51:54;;;;;;;;;;;6.20;99.90;;;;;;6192364;23;19935;-89
2022/02/06 21:54:23;;;;;;;;;;;6.10;99.90;;;;;;6192031;23;20295;-89
2022/02/06 21:56:51;;;;;;;;;;;6.10;99.90;;;;;;6191840;23;19904;-91
2022/02/06 21:59:17;;;;;;;;;;;6.10;99.90;;;;;;6192531;23;19954;-92
2022/02/06 22:01:53;;;;;;;;;;;6.10;99.90;;;;;;6192328;23;20261;-91
2022/02/06 22:04:22;;;;;;;;;;;6.10;99.80;;;;;;6192748;23;19910;-90
2022/02/06 22:06:50;;;;;;;;;;;6.00;99.50;;;;;;6225772;23;19888;-91
2022/02/06 22:09:52;;;;;;;;;;;6.00;99.40;;;;;;6218550;23;19898;-90
2022/02/06 22:29:14;;;;;;;;;;;5.90;98.50;;;;;;6160456;23;19997;-88
2022/02/06 22:31:42;;;;;;;;;;;5.90;98.30;;;;;;6186966;23;19910;-90
2022/02/06 22:34:08;;;;;;;;;;;5.90;98.30;;;;;;6196354;23;19911;-91
2022/02/06 22:36:41;;;;;;;;;;;5.90;97.80;;;;;;6224391;23;19986;-92
2022/02/06 22:39:10;;;;;;;;;;;5.90;97.30;;;;;;6200906;23;20310;-89
2022/02/06 22:41:45;;;;;;;;;;;5.70;96.70;;;;;;6203087;23;19923;-90
2022/02/06 22:44:14;;;;;;;;;;;5.50;97.10;;;;;;6203403;23;19968;-90
2022/02/06 22:46:52;;;;;;;;;;;;;;;;;;;;;
2022/02/06 22:49:28;;;;;;;;;;;5.20;97.60;;;;;;6238794;23;20350;-90
2022/02/06 22:51:56;;;;;;;;;;;5.10;98.00;;;;;;6197995;23;19904;-90
2022/02/06 22:54:30;;;;;;;;;;;5.00;98.20;;;;;;6195784;23;19904;-91
2022/02/06 22:56:58;;;;;;;;;;;5.00;98.50;;;;;;6195623;23;19915;-91
2022/02/06 22:59:24;;;;;;;;;;;5.00;98.50;;;;;;6195367;23;19908;-90
2022/02/06 23:01:56;;;;;;;;;;;5.00;98.70;;;;;;6195463;23;19995;-90
2022/02/06 23:04:26;;;;;;;;;;;5.00;98.80;;;;;;6195622;23;19915;-90
2022/02/06 23:07:02;;;;;;;;;;;;;;;;;;;;;
2022/02/06 23:09:35;;;;;;;;;;;5.00;99.00;;;;;;6221735;23;19991;-91